sensor_id;sensor_type;location;lat;lon;timestamp;P1;durP1;ratioP1;P2;durP2;ratioP2
14603;SDS011;7388;51.078;13.740;2022-10-16T00:01:29;14.40;;;12.77;;
14603;SDS011;7388;51.078;13.740;2022-10-16T00:03:56;14.35;;;11.73;;
14603;SDS011;7388;51.078;13.740;2022-10-16T00:06:23;16.35;;;13.23;;
14603;SDS011;7388;51.078;13.740;2022-10-16T00:08:49;15.88;;;12.75;;
14603;SDS011;7388;51.078;13.740;2022-10-16T00:11:19;13.80;;;11.82;;
14603;SDS011;7388;51.078;13.740;2022-10-16T00:13:51;15.55;;;12.40;;
14603;SDS011;7388;51.078;13.740;2022-10-16T00:16:21;14.98;;;13.25;;
14603;SDS011;7388;51.078;13.740;2022-10-16T00:18:47;15.45;;;11.65;;
14603;SDS011;7388;51.078;13.740;2022-10-16T00:21:14;15.70;;;11.77;;
14603;SDS011;7388;51.078;13.740;2022-10-16T00:23:45;17.05;;;12.57;;
14603;SDS011;7388;51.078;13.740;2022-10-16T00:26:16;14.77;;;12.25;;
14603;SDS011;7388;51.078;13.740;2022-10-16T00:28:44;20.42;;;12.50;;
14603;SDS011;7388;51.078;13.740;2022-10-16T00:31:11;15.57;;;13.77;;
14603;SDS011;7388;51.078;13.740;2022-10-16T00:33:37;28.55;;;23.20;;
14603;SDS011;7388;51.078;13.740;2022-10-16T00:36:05;22.35;;;19.17;;
14603;SDS011;7388;51.078;13.740;2022-10-16T00:38:32;22.40;;;17.48;;
14603;SDS011;7388;51.078;13.740;2022-10-16T00:40:59;18.50;;;14.88;;
14603;SDS011;7388;51.078;13.740;2022-10-16T00:46:00;16.80;;;13.10;;
14603;SDS011;7388;51.078;13.740;2022-10-16T00:48:27;18.05;;;14.63;;
14603;SDS011;7388;51.078;13.740;2022-10-16T00:50:53;15.82;;;13.98;;
14603;SDS011;7388;51.078;13.740;2022-10-16T00:53:20;18.17;;;13.73;;
14603;SDS011;7388;51.078;13.740;2022-10-16T00:55:47;16.05;;;13.50;;
14603;SDS011;7388;51.078;13.740;2022-10-16T00:58:12;15.53;;;13.43;;
14603;SDS011;7388;51.078;13.740;2022-10-16T01:00:38;12.90;;;11.50;;
14603;SDS011;7388;51.078;13.740;2022-10-16T01:03:22;17.20;;;12.43;;
14603;SDS011;7388;51.078;13.740;2022-10-16T01:05:51;15.05;;;12.07;;
14603;SDS011;7388;51.078;13.740;2022-10-16T01:09:12;15.65;;;12.55;;
14603;SDS011;7388;51.078;13.740;2022-10-16T01:11:41;14.82;;;12.07;;
14603;SDS011;7388;51.078;13.740;2022-10-16T01:17:20;14.65;;;12.18;;
14603;SDS011;7388;51.078;13.740;2022-10-16T01:28:39;15.90;;;13.15;;
14603;SDS011;7388;51.078;13.740;2022-10-16T01:31:30;14.13;;;12.10;;
14603;SDS011;7388;51.078;13.740;2022-10-16T01:36:41;12.45;;;11.15;;
14603;SDS011;7388;51.078;13.740;2022-10-16T01:39:10;13.30;;;11.88;;
14603;SDS011;7388;51.078;13.740;2022-10-16T01:41:38;13.10;;;11.63;;
14603;SDS011;7388;51.078;13.740;2022-10-16T01:44:33;14.82;;;12.07;;
14603;SDS011;7388;51.078;13.740;2022-10-16T01:46:59;12.32;;;11.07;;
14603;SDS011;7388;51.078;13.740;2022-10-16T01:49:26;15.70;;;12.07;;
14603;SDS011;7388;51.078;13.740;2022-10-16T01:51:57;14.32;;;12.43;;
14603;SDS011;7388;51.078;13.740;2022-10-16T01:54:26;14.30;;;12.65;;
14603;SDS011;7388;51.078;13.740;2022-10-16T01:56:54;13.18;;;11.55;;
14603;SDS011;7388;51.078;13.740;2022-10-16T01:59:21;13.32;;;11.93;;
14603;SDS011;7388;51.078;13.740;2022-10-16T02:01:51;13.93;;;12.30;;
14603;SDS011;7388;51.078;13.740;2022-10-16T02:07:16;15.35;;;13.38;;
14603;SDS011;7388;51.078;13.740;2022-10-16T02:09:41;15.03;;;13.50;;
14603;SDS011;7388;51.078;13.740;2022-10-16T02:12:09;15.40;;;13.33;;
14603;SDS011;7388;51.078;13.740;2022-10-16T02:14:55;16.55;;;13.40;;
14603;SDS011;7388;51.078;13.740;2022-10-16T02:17:21;15.40;;;13.90;;
14603;SDS011;7388;51.078;13.740;2022-10-16T02:19:48;15.07;;;13.00;;
14603;SDS011;7388;51.078;13.740;2022-10-16T02:22:21;13.27;;;11.88;;
14603;SDS011;7388;51.078;13.740;2022-10-16T02:24:58;18.35;;;12.10;;
14603;SDS011;7388;51.078;13.740;2022-10-16T02:30:05;14.65;;;13.07;;
14603;SDS011;7388;51.078;13.740;2022-10-16T02:32:44;15.60;;;13.93;;
14603;SDS011;7388;51.078;13.740;2022-10-16T02:35:11;16.70;;;13.07;;
14603;SDS011;7388;51.078;13.740;2022-10-16T02:37:38;15.73;;;13.80;;
14603;SDS011;7388;51.078;13.740;2022-10-16T02:40:05;14.75;;;12.60;;
14603;SDS011;7388;51.078;13.740;2022-10-16T02:42:36;17.20;;;14.55;;
14603;SDS011;7388;51.078;13.740;2022-10-16T02:45:04;15.57;;;12.48;;
14603;SDS011;7388;51.078;13.740;2022-10-16T02:47:34;15.45;;;13.82;;
14603;SDS011;7388;51.078;13.740;2022-10-16T02:50:00;16.17;;;14.47;;
14603;SDS011;7388;51.078;13.740;2022-10-16T02:52:26;13.90;;;12.40;;
14603;SDS011;7388;51.078;13.740;2022-10-16T02:54:51;15.43;;;12.90;;
14603;SDS011;7388;51.078;13.740;2022-10-16T02:57:17;15.83;;;14.20;;
14603;SDS011;7388;51.078;13.740;2022-10-16T02:59:43;15.53;;;13.67;;
14603;SDS011;7388;51.078;13.740;2022-10-16T03:02:10;16.10;;;14.00;;
14603;SDS011;7388;51.078;13.740;2022-10-16T03:04:36;14.98;;;11.65;;
14603;SDS011;7388;51.078;13.740;2022-10-16T03:07:02;18.58;;;13.57;;
14603;SDS011;7388;51.078;13.740;2022-10-16T03:09:28;15.97;;;12.57;;
14603;SDS011;7388;51.078;13.740;2022-10-16T03:11:54;14.07;;;12.67;;
14603;SDS011;7388;51.078;13.740;2022-10-16T03:14:20;13.97;;;12.07;;
14603;SDS011;7388;51.078;13.740;2022-10-16T03:16:45;16.70;;;12.97;;
14603;SDS011;7388;51.078;13.740;2022-10-16T03:19:11;16.57;;;12.50;;
14603;SDS011;7388;51.078;13.740;2022-10-16T03:21:37;14.53;;;12.40;;
14603;SDS011;7388;51.078;13.740;2022-10-16T03:24:02;15.17;;;13.17;;
14603;SDS011;7388;51.078;13.740;2022-10-16T03:26:28;19.35;;;12.73;;
14603;SDS011;7388;51.078;13.740;2022-10-16T03:28:54;17.50;;;13.43;;
14603;SDS011;7388;51.078;13.740;2022-10-16T03:31:20;16.10;;;11.77;;
14603;SDS011;7388;51.078;13.740;2022-10-16T03:33:46;14.17;;;12.67;;
14603;SDS011;7388;51.078;13.740;2022-10-16T03:36:11;15.93;;;12.77;;
14603;SDS011;7388;51.078;13.740;2022-10-16T03:38:37;16.30;;;13.00;;
14603;SDS011;7388;51.078;13.740;2022-10-16T03:41:03;13.80;;;11.50;;
14603;SDS011;7388;51.078;13.740;2022-10-16T03:43:29;15.65;;;12.52;;
14603;SDS011;7388;51.078;13.740;2022-10-16T03:45:54;13.03;;;11.43;;
14603;SDS011;7388;51.078;13.740;2022-10-16T03:48:20;14.43;;;12.80;;
14603;SDS011;7388;51.078;13.740;2022-10-16T03:50:46;15.53;;;12.83;;
14603;SDS011;7388;51.078;13.740;2022-10-16T03:53:13;13.32;;;11.90;;
14603;SDS011;7388;51.078;13.740;2022-10-16T03:55:41;14.57;;;12.50;;
14603;SDS011;7388;51.078;13.740;2022-10-16T03:58:07;13.05;;;11.65;;
14603;SDS011;7388;51.078;13.740;2022-10-16T04:00:33;12.97;;;10.80;;
14603;SDS011;7388;51.078;13.740;2022-10-16T04:02:59;15.27;;;13.75;;
14603;SDS011;7388;51.078;13.740;2022-10-16T04:05:25;15.20;;;13.05;;
14603;SDS011;7388;51.078;13.740;2022-10-16T04:07:51;12.73;;;11.27;;
14603;SDS011;7388;51.078;13.740;2022-10-16T04:10:17;14.40;;;12.87;;
14603;SDS011;7388;51.078;13.740;2022-10-16T04:12:44;17.85;;;12.60;;
14603;SDS011;7388;51.078;13.740;2022-10-16T04:15:09;12.63;;;11.33;;
14603;SDS011;7388;51.078;13.740;2022-10-16T04:17:35;18.50;;;14.67;;
14603;SDS011;7388;51.078;13.740;2022-10-16T04:20:01;16.57;;;13.53;;
14603;SDS011;7388;51.078;13.740;2022-10-16T04:22:28;15.32;;;13.73;;
14603;SDS011;7388;51.078;13.740;2022-10-16T04:24:53;15.00;;;13.07;;
14603;SDS011;7388;51.078;13.740;2022-10-16T04:27:19;14.80;;;13.30;;
14603;SDS011;7388;51.078;13.740;2022-10-16T04:29:45;14.43;;;12.47;;
14603;SDS011;7388;51.078;13.740;2022-10-16T04:32:11;14.87;;;12.33;;
14603;SDS011;7388;51.078;13.740;2022-10-16T04:34:36;15.03;;;13.53;;
14603;SDS011;7388;51.078;13.740;2022-10-16T04:37:05;14.95;;;13.27;;
14603;SDS011;7388;51.078;13.740;2022-10-16T04:39:30;15.50;;;13.90;;
14603;SDS011;7388;51.078;13.740;2022-10-16T04:41:56;14.57;;;13.03;;
14603;SDS011;7388;51.078;13.740;2022-10-16T04:44:22;15.00;;;12.47;;
14603;SDS011;7388;51.078;13.740;2022-10-16T04:46:49;14.40;;;12.90;;
14603;SDS011;7388;51.078;13.740;2022-10-16T04:49:15;13.43;;;12.02;;
14603;SDS011;7388;51.078;13.740;2022-10-16T04:51:41;16.30;;;13.07;;
14603;SDS011;7388;51.078;13.740;2022-10-16T04:54:08;14.63;;;13.13;;
14603;SDS011;7388;51.078;13.740;2022-10-16T04:56:34;13.73;;;11.85;;
14603;SDS011;7388;51.078;13.740;2022-10-16T04:59:08;18.05;;;13.73;;
14603;SDS011;7388;51.078;13.740;2022-10-16T05:01:34;16.02;;;13.43;;
14603;SDS011;7388;51.078;13.740;2022-10-16T05:03:59;17.00;;;15.20;;
14603;SDS011;7388;51.078;13.740;2022-10-16T05:06:25;13.63;;;11.87;;
14603;SDS011;7388;51.078;13.740;2022-10-16T05:08:51;16.60;;;13.70;;
14603;SDS011;7388;51.078;13.740;2022-10-16T05:11:17;14.77;;;13.27;;
14603;SDS011;7388;51.078;13.740;2022-10-16T05:13:42;16.93;;;13.50;;
14603;SDS011;7388;51.078;13.740;2022-10-16T05:16:08;15.00;;;12.70;;
14603;SDS011;7388;51.078;13.740;2022-10-16T05:18:34;14.77;;;13.27;;
14603;SDS011;7388;51.078;13.740;2022-10-16T05:20:59;15.07;;;13.53;;
14603;SDS011;7388;51.078;13.740;2022-10-16T05:23:25;13.87;;;12.33;;
14603;SDS011;7388;51.078;13.740;2022-10-16T05:25:52;17.07;;;12.67;;
14603;SDS011;7388;51.078;13.740;2022-10-16T05:28:23;13.85;;;12.45;;
14603;SDS011;7388;51.078;13.740;2022-10-16T05:30:52;13.55;;;12.15;;
14603;SDS011;7388;51.078;13.740;2022-10-16T05:33:19;14.65;;;12.15;;
14603;SDS011;7388;51.078;13.740;2022-10-16T05:35:46;15.30;;;12.88;;
14603;SDS011;7388;51.078;13.740;2022-10-16T05:38:11;15.27;;;12.97;;
14603;SDS011;7388;51.078;13.740;2022-10-16T05:40:37;14.57;;;11.70;;
14603;SDS011;7388;51.078;13.740;2022-10-16T05:43:03;12.53;;;9.90;;
14603;SDS011;7388;51.078;13.740;2022-10-16T05:45:29;13.90;;;11.93;;
14603;SDS011;7388;51.078;13.740;2022-10-16T05:47:55;14.43;;;12.75;;
14603;SDS011;7388;51.078;13.740;2022-10-16T05:50:21;13.10;;;11.60;;
14603;SDS011;7388;51.078;13.740;2022-10-16T05:52:47;12.70;;;11.03;;
14603;SDS011;7388;51.078;13.740;2022-10-16T05:55:12;13.03;;;11.60;;
14603;SDS011;7388;51.078;13.740;2022-10-16T05:57:38;13.73;;;11.43;;
14603;SDS011;7388;51.078;13.740;2022-10-16T06:00:04;13.63;;;11.90;;
14603;SDS011;7388;51.078;13.740;2022-10-16T06:02:30;14.38;;;12.98;;
14603;SDS011;7388;51.078;13.740;2022-10-16T06:04:56;16.07;;;11.67;;
14603;SDS011;7388;51.078;13.740;2022-10-16T06:07:22;12.90;;;11.60;;
14603;SDS011;7388;51.078;13.740;2022-10-16T06:09:49;14.32;;;12.80;;
14603;SDS011;7388;51.078;13.740;2022-10-16T06:12:15;13.93;;;12.45;;
14603;SDS011;7388;51.078;13.740;2022-10-16T06:14:41;16.00;;;12.50;;
14603;SDS011;7388;51.078;13.740;2022-10-16T06:17:07;13.40;;;10.53;;
14603;SDS011;7388;51.078;13.740;2022-10-16T06:19:33;14.30;;;12.90;;
14603;SDS011;7388;51.078;13.740;2022-10-16T06:21:58;13.93;;;12.53;;
14603;SDS011;7388;51.078;13.740;2022-10-16T06:24:25;15.70;;;13.70;;
14603;SDS011;7388;51.078;13.740;2022-10-16T06:26:51;14.90;;;13.30;;
14603;SDS011;7388;51.078;13.740;2022-10-16T06:29:16;13.00;;;11.70;;
14603;SDS011;7388;51.078;13.740;2022-10-16T06:31:42;14.70;;;13.00;;
14603;SDS011;7388;51.078;13.740;2022-10-16T06:34:11;14.50;;;13.00;;
14603;SDS011;7388;51.078;13.740;2022-10-16T06:36:37;13.70;;;12.30;;
14603;SDS011;7388;51.078;13.740;2022-10-16T06:39:04;15.02;;;13.43;;
14603;SDS011;7388;51.078;13.740;2022-10-16T06:41:31;14.88;;;13.27;;
14603;SDS011;7388;51.078;13.740;2022-10-16T06:43:58;15.00;;;13.48;;
14603;SDS011;7388;51.078;13.740;2022-10-16T06:46:24;14.53;;;13.03;;
14603;SDS011;7388;51.078;13.740;2022-10-16T06:48:51;15.85;;;14.15;;
14603;SDS011;7388;51.078;13.740;2022-10-16T06:51:18;14.73;;;13.23;;
14603;SDS011;7388;51.078;13.740;2022-10-16T06:53:47;14.85;;;13.25;;
14603;SDS011;7388;51.078;13.740;2022-10-16T06:56:15;16.17;;;14.23;;
14603;SDS011;7388;51.078;13.740;2022-10-16T06:58:51;21.97;;;18.03;;
14603;SDS011;7388;51.078;13.740;2022-10-16T07:01:17;15.43;;;13.80;;
14603;SDS011;7388;51.078;13.740;2022-10-16T07:03:45;14.57;;;12.82;;
14603;SDS011;7388;51.078;13.740;2022-10-16T07:06:12;16.67;;;14.60;;
14603;SDS011;7388;51.078;13.740;2022-10-16T07:08:41;16.33;;;14.73;;
14603;SDS011;7388;51.078;13.740;2022-10-16T07:11:10;15.90;;;13.10;;
14603;SDS011;7388;51.078;13.740;2022-10-16T07:13:38;15.55;;;13.45;;
14603;SDS011;7388;51.078;13.740;2022-10-16T07:16:06;15.75;;;14.05;;
14603;SDS011;7388;51.078;13.740;2022-10-16T07:18:38;15.63;;;12.90;;
14603;SDS011;7388;51.078;13.740;2022-10-16T07:23:50;15.57;;;13.95;;
14603;SDS011;7388;51.078;13.740;2022-10-16T07:26:20;15.20;;;13.60;;
14603;SDS011;7388;51.078;13.740;2022-10-16T07:28:46;15.18;;;13.57;;
14603;SDS011;7388;51.078;13.740;2022-10-16T07:31:13;16.20;;;14.50;;
14603;SDS011;7388;51.078;13.740;2022-10-16T07:33:41;16.17;;;14.57;;
14603;SDS011;7388;51.078;13.740;2022-10-16T07:36:09;18.13;;;14.68;;
14603;SDS011;7388;51.078;13.740;2022-10-16T07:38:35;17.47;;;15.63;;
14603;SDS011;7388;51.078;13.740;2022-10-16T07:41:02;17.07;;;14.47;;
14603;SDS011;7388;51.078;13.740;2022-10-16T07:43:33;15.77;;;13.30;;
14603;SDS011;7388;51.078;13.740;2022-10-16T07:45:59;15.73;;;13.53;;
14603;SDS011;7388;51.078;13.740;2022-10-16T07:48:28;15.33;;;13.67;;
14603;SDS011;7388;51.078;13.740;2022-10-16T07:50:59;15.47;;;13.97;;
14603;SDS011;7388;51.078;13.740;2022-10-16T07:53:26;16.37;;;14.67;;
14603;SDS011;7388;51.078;13.740;2022-10-16T07:55:54;15.80;;;14.20;;
14603;SDS011;7388;51.078;13.740;2022-10-16T07:58:23;14.80;;;13.23;;
14603;SDS011;7388;51.078;13.740;2022-10-16T08:00:49;14.90;;;12.90;;
14603;SDS011;7388;51.078;13.740;2022-10-16T08:03:14;15.13;;;13.63;;
14603;SDS011;7388;51.078;13.740;2022-10-16T08:05:40;16.80;;;15.10;;
14603;SDS011;7388;51.078;13.740;2022-10-16T08:08:06;14.97;;;13.47;;
14603;SDS011;7388;51.078;13.740;2022-10-16T08:10:36;14.77;;;13.37;;
14603;SDS011;7388;51.078;13.740;2022-10-16T08:13:02;14.90;;;13.40;;
14603;SDS011;7388;51.078;13.740;2022-10-16T08:15:28;13.73;;;12.43;;
14603;SDS011;7388;51.078;13.740;2022-10-16T08:17:57;15.10;;;12.90;;
14603;SDS011;7388;51.078;13.740;2022-10-16T08:20:24;13.50;;;12.30;;
14603;SDS011;7388;51.078;13.740;2022-10-16T08:22:51;13.63;;;11.97;;
14603;SDS011;7388;51.078;13.740;2022-10-16T08:25:17;12.23;;;11.03;;
14603;SDS011;7388;51.078;13.740;2022-10-16T08:27:43;12.47;;;11.23;;
14603;SDS011;7388;51.078;13.740;2022-10-16T08:30:09;15.27;;;11.83;;
14603;SDS011;7388;51.078;13.740;2022-10-16T08:32:36;16.57;;;11.60;;
14603;SDS011;7388;51.078;13.740;2022-10-16T08:35:01;11.47;;;10.27;;
14603;SDS011;7388;51.078;13.740;2022-10-16T08:37:31;19.20;;;10.53;;
14603;SDS011;7388;51.078;13.740;2022-10-16T08:39:58;12.20;;;10.93;;
14603;SDS011;7388;51.078;13.740;2022-10-16T08:42:32;12.67;;;11.37;;
14603;SDS011;7388;51.078;13.740;2022-10-16T08:45:21;11.00;;;9.90;;
14603;SDS011;7388;51.078;13.740;2022-10-16T08:50:39;10.00;;;8.60;;
14603;SDS011;7388;51.078;13.740;2022-10-16T08:53:05;11.07;;;9.97;;
14603;SDS011;7388;51.078;13.740;2022-10-16T08:55:41;9.80;;;8.90;;
14603;SDS011;7388;51.078;13.740;2022-10-16T08:58:15;10.80;;;9.70;;
14603;SDS011;7388;51.078;13.740;2022-10-16T09:00:44;9.27;;;8.37;;
14603;SDS011;7388;51.078;13.740;2022-10-16T09:03:24;8.20;;;7.50;;
14603;SDS011;7388;51.078;13.740;2022-10-16T09:06:00;9.53;;;6.60;;
14603;SDS011;7388;51.078;13.740;2022-10-16T09:08:49;7.50;;;6.80;;
14603;SDS011;7388;51.078;13.740;2022-10-16T09:11:43;6.40;;;5.80;;
14603;SDS011;7388;51.078;13.740;2022-10-16T09:20:02;8.30;;;6.80;;
14603;SDS011;7388;51.078;13.740;2022-10-16T09:22:35;7.00;;;6.00;;
14603;SDS011;7388;51.078;13.740;2022-10-16T09:25:04;8.33;;;7.43;;
14603;SDS011;7388;51.078;13.740;2022-10-16T09:27:37;7.93;;;7.13;;
14603;SDS011;7388;51.078;13.740;2022-10-16T09:30:10;6.97;;;6.00;;
14603;SDS011;7388;51.078;13.740;2022-10-16T09:32:38;7.03;;;6.37;;
14603;SDS011;7388;51.078;13.740;2022-10-16T09:35:09;6.63;;;6.00;;
14603;SDS011;7388;51.078;13.740;2022-10-16T09:37:42;6.87;;;6.23;;
14603;SDS011;7388;51.078;13.740;2022-10-16T09:40:32;7.93;;;6.40;;
14603;SDS011;7388;51.078;13.740;2022-10-16T09:45:53;6.50;;;5.73;;
14603;SDS011;7388;51.078;13.740;2022-10-16T09:48:21;7.00;;;6.40;;
14603;SDS011;7388;51.078;13.740;2022-10-16T09:50:57;6.10;;;5.50;;
14603;SDS011;7388;51.078;13.740;2022-10-16T09:53:24;7.50;;;6.80;;
14603;SDS011;7388;51.078;13.740;2022-10-16T09:56:02;6.13;;;5.53;;
14603;SDS011;7388;51.078;13.740;2022-10-16T09:58:30;6.30;;;5.70;;
14603;SDS011;7388;51.078;13.740;2022-10-16T10:00:58;5.90;;;5.40;;
14603;SDS011;7388;51.078;13.740;2022-10-16T10:03:33;8.53;;;5.50;;
14603;SDS011;7388;51.078;13.740;2022-10-16T10:06:06;5.27;;;4.77;;
14603;SDS011;7388;51.078;13.740;2022-10-16T10:08:52;4.40;;;4.00;;
14603;SDS011;7388;51.078;13.740;2022-10-16T10:11:35;4.90;;;4.10;;
14603;SDS011;7388;51.078;13.740;2022-10-16T10:19:36;4.20;;;3.80;;
14603;SDS011;7388;51.078;13.740;2022-10-16T10:22:17;7.30;;;2.77;;
14603;SDS011;7388;51.078;13.740;2022-10-16T10:46:41;1.43;;;0.80;;
14603;SDS011;7388;51.078;13.740;2022-10-16T10:49:32;1.73;;;0.90;;
14603;SDS011;7388;51.078;13.740;2022-10-16T10:57:40;1.70;;;0.93;;
14603;SDS011;7388;51.078;13.740;2022-10-16T11:00:28;2.20;;;0.90;;
14603;SDS011;7388;51.078;13.740;2022-10-16T11:06:44;1.50;;;0.63;;
14603;SDS011;7388;51.078;13.740;2022-10-16T11:09:02;1.50;;;1.00;;
14603;SDS011;7388;51.078;13.740;2022-10-16T11:16:56;1.93;;;0.83;;
14603;SDS011;7388;51.078;13.740;2022-10-16T11:19:40;2.00;;;1.37;;
14603;SDS011;7388;51.078;13.740;2022-10-16T11:22:11;2.33;;;0.90;;
14603;SDS011;7388;51.078;13.740;2022-10-16T11:30:49;1.30;;;0.77;;
14603;SDS011;7388;51.078;13.740;2022-10-16T11:33:37;2.03;;;1.00;;
14603;SDS011;7388;51.078;13.740;2022-10-16T11:39:02;1.30;;;0.63;;
14603;SDS011;7388;51.078;13.740;2022-10-16T11:44:14;1.10;;;0.60;;
14603;SDS011;7388;51.078;13.740;2022-10-16T11:46:51;1.77;;;0.60;;
14603;SDS011;7388;51.078;13.740;2022-10-16T11:49:38;1.73;;;0.93;;
14603;SDS011;7388;51.078;13.740;2022-10-16T11:54:52;1.40;;;0.70;;
14603;SDS011;7388;51.078;13.740;2022-10-16T11:57:33;1.93;;;0.87;;
14603;SDS011;7388;51.078;13.740;2022-10-16T12:00:06;1.40;;;0.70;;
14603;SDS011;7388;51.078;13.740;2022-10-16T12:02:55;2.13;;;1.10;;
14603;SDS011;7388;51.078;13.740;2022-10-16T12:08:33;1.97;;;0.97;;
14603;SDS011;7388;51.078;13.740;2022-10-16T12:11:07;3.30;;;0.90;;
14603;SDS011;7388;51.078;13.740;2022-10-16T12:14:03;1.40;;;0.87;;
14603;SDS011;7388;51.078;13.740;2022-10-16T12:16:32;1.07;;;0.60;;
14603;SDS011;7388;51.078;13.740;2022-10-16T12:19:11;1.30;;;0.80;;
14603;SDS011;7388;51.078;13.740;2022-10-16T12:21:41;1.67;;;0.80;;
14603;SDS011;7388;51.078;13.740;2022-10-16T12:24:28;2.00;;;0.80;;
14603;SDS011;7388;51.078;13.740;2022-10-16T12:27:03;1.30;;;0.70;;
14603;SDS011;7388;51.078;13.740;2022-10-16T12:32:05;2.63;;;1.00;;
14603;SDS011;7388;51.078;13.740;2022-10-16T12:34:47;1.30;;;0.90;;
14603;SDS011;7388;51.078;13.740;2022-10-16T12:39:49;2.00;;;0.90;;
14603;SDS011;7388;51.078;13.740;2022-10-16T12:42:31;1.30;;;0.70;;
14603;SDS011;7388;51.078;13.740;2022-10-16T12:44:59;1.60;;;0.70;;
14603;SDS011;7388;51.078;13.740;2022-10-16T12:49:57;1.63;;;0.97;;
14603;SDS011;7388;51.078;13.740;2022-10-16T12:52:37;1.37;;;1.07;;
14603;SDS011;7388;51.078;13.740;2022-10-16T12:55:04;1.30;;;0.90;;
14603;SDS011;7388;51.078;13.740;2022-10-16T13:00:21;1.50;;;0.93;;
14603;SDS011;7388;51.078;13.740;2022-10-16T13:09:02;1.70;;;1.00;;
14603;SDS011;7388;51.078;13.740;2022-10-16T13:22:41;1.70;;;0.90;;
14603;SDS011;7388;51.078;13.740;2022-10-16T13:28:01;2.53;;;1.13;;
14603;SDS011;7388;51.078;13.740;2022-10-16T13:30:50;2.90;;;1.20;;
14603;SDS011;7388;51.078;13.740;2022-10-16T13:36:26;1.83;;;0.83;;
14603;SDS011;7388;51.078;13.740;2022-10-16T13:41:45;5.90;;;1.20;;
14603;SDS011;7388;51.078;13.740;2022-10-16T13:44:13;1.40;;;0.90;;
14603;SDS011;7388;51.078;13.740;2022-10-16T13:46:43;4.13;;;1.63;;
14603;SDS011;7388;51.078;13.740;2022-10-16T13:49:13;4.40;;;1.80;;
14603;SDS011;7388;51.078;13.740;2022-10-16T13:51:40;4.23;;;1.97;;
14603;SDS011;7388;51.078;13.740;2022-10-16T13:54:08;2.30;;;1.60;;
14603;SDS011;7388;51.078;13.740;2022-10-16T13:56:38;7.03;;;2.07;;
14603;SDS011;7388;51.078;13.740;2022-10-16T13:59:06;3.43;;;2.33;;
14603;SDS011;7388;51.078;13.740;2022-10-16T14:01:47;2.73;;;1.60;;
14603;SDS011;7388;51.078;13.740;2022-10-16T14:04:13;2.80;;;1.93;;
14603;SDS011;7388;51.078;13.740;2022-10-16T14:06:41;3.67;;;1.50;;
14603;SDS011;7388;51.078;13.740;2022-10-16T14:12:08;2.63;;;1.97;;
14603;SDS011;7388;51.078;13.740;2022-10-16T14:14:43;3.30;;;1.70;;
14603;SDS011;7388;51.078;13.740;2022-10-16T14:17:22;3.10;;;1.70;;
14603;SDS011;7388;51.078;13.740;2022-10-16T14:19:56;3.43;;;1.77;;
14603;SDS011;7388;51.078;13.740;2022-10-16T14:25:00;4.87;;;3.00;;
14603;SDS011;7388;51.078;13.740;2022-10-16T14:32:40;2.10;;;1.60;;
14603;SDS011;7388;51.078;13.740;2022-10-16T14:35:29;2.80;;;2.30;;
14603;SDS011;7388;51.078;13.740;2022-10-16T14:38:01;3.50;;;1.77;;
14603;SDS011;7388;51.078;13.740;2022-10-16T14:40:33;4.30;;;2.00;;
14603;SDS011;7388;51.078;13.740;2022-10-16T14:43:01;3.43;;;2.40;;
14603;SDS011;7388;51.078;13.740;2022-10-16T14:45:29;3.67;;;2.20;;
14603;SDS011;7388;51.078;13.740;2022-10-16T14:47:58;4.73;;;2.60;;
14603;SDS011;7388;51.078;13.740;2022-10-16T14:50:26;2.60;;;1.80;;
14603;SDS011;7388;51.078;13.740;2022-10-16T14:52:52;5.10;;;4.40;;
14603;SDS011;7388;51.078;13.740;2022-10-16T14:55:18;5.20;;;3.67;;
14603;SDS011;7388;51.078;13.740;2022-10-16T14:57:44;4.60;;;3.23;;
14603;SDS011;7388;51.078;13.740;2022-10-16T15:00:18;5.37;;;3.83;;
14603;SDS011;7388;51.078;13.740;2022-10-16T15:02:47;5.10;;;4.00;;
14603;SDS011;7388;51.078;13.740;2022-10-16T15:05:18;5.37;;;4.77;;
14603;SDS011;7388;51.078;13.740;2022-10-16T15:07:50;6.00;;;3.97;;
14603;SDS011;7388;51.078;13.740;2022-10-16T15:10:18;4.23;;;3.83;;
14603;SDS011;7388;51.078;13.740;2022-10-16T15:12:46;6.27;;;5.30;;
14603;SDS011;7388;51.078;13.740;2022-10-16T15:15:31;7.37;;;6.20;;
14603;SDS011;7388;51.078;13.740;2022-10-16T15:18:02;7.33;;;5.97;;
14603;SDS011;7388;51.078;13.740;2022-10-16T15:20:33;6.37;;;5.10;;
14603;SDS011;7388;51.078;13.740;2022-10-16T15:23:01;7.80;;;7.00;;
14603;SDS011;7388;51.078;13.740;2022-10-16T15:27:59;8.40;;;6.60;;
14603;SDS011;7388;51.078;13.740;2022-10-16T15:30:26;7.63;;;6.83;;
14603;SDS011;7388;51.078;13.740;2022-10-16T15:32:52;7.00;;;6.00;;
14603;SDS011;7388;51.078;13.740;2022-10-16T15:35:18;8.07;;;6.30;;
14603;SDS011;7388;51.078;13.740;2022-10-16T15:37:44;11.87;;;6.70;;
14603;SDS011;7388;51.078;13.740;2022-10-16T15:40:11;13.53;;;7.17;;
14603;SDS011;7388;51.078;13.740;2022-10-16T15:42:37;12.27;;;8.93;;
14603;SDS011;7388;51.078;13.740;2022-10-16T15:45:03;9.73;;;8.77;;
14603;SDS011;7388;51.078;13.740;2022-10-16T15:47:29;12.20;;;10.03;;
14603;SDS011;7388;51.078;13.740;2022-10-16T15:49:55;11.17;;;9.40;;
14603;SDS011;7388;51.078;13.740;2022-10-16T15:52:20;10.60;;;8.77;;
14603;SDS011;7388;51.078;13.740;2022-10-16T15:54:46;9.93;;;8.37;;
14603;SDS011;7388;51.078;13.740;2022-10-16T15:57:12;10.10;;;8.23;;
14603;SDS011;7388;51.078;13.740;2022-10-16T15:59:37;9.17;;;7.53;;
14603;SDS011;7388;51.078;13.740;2022-10-16T16:02:03;7.07;;;6.13;;
14603;SDS011;7388;51.078;13.740;2022-10-16T16:04:29;8.97;;;6.90;;
14603;SDS011;7388;51.078;13.740;2022-10-16T16:06:56;9.33;;;8.40;;
14603;SDS011;7388;51.078;13.740;2022-10-16T16:09:21;8.70;;;7.10;;
14603;SDS011;7388;51.078;13.740;2022-10-16T16:11:48;7.23;;;5.43;;
14603;SDS011;7388;51.078;13.740;2022-10-16T16:14:14;4.83;;;4.33;;
14603;SDS011;7388;51.078;13.740;2022-10-16T16:16:40;7.37;;;5.17;;
14603;SDS011;7388;51.078;13.740;2022-10-16T16:19:07;6.70;;;4.77;;
14603;SDS011;7388;51.078;13.740;2022-10-16T16:21:34;6.53;;;5.40;;
14603;SDS011;7388;51.078;13.740;2022-10-16T16:24:00;72.00;;;50.03;;
14603;SDS011;7388;51.078;13.740;2022-10-16T16:26:27;62.50;;;47.80;;
14603;SDS011;7388;51.078;13.740;2022-10-16T16:28:58;46.67;;;33.57;;
14603;SDS011;7388;51.078;13.740;2022-10-16T16:31:25;32.10;;;21.80;;
14603;SDS011;7388;51.078;13.740;2022-10-16T16:33:52;20.70;;;14.73;;
14603;SDS011;7388;51.078;13.740;2022-10-16T16:36:18;9.97;;;7.60;;
14603;SDS011;7388;51.078;13.740;2022-10-16T16:38:45;12.53;;;9.40;;
14603;SDS011;7388;51.078;13.740;2022-10-16T16:41:12;12.53;;;9.50;;
14603;SDS011;7388;51.078;13.740;2022-10-16T16:43:38;12.00;;;8.50;;
14603;SDS011;7388;51.078;13.740;2022-10-16T16:46:04;11.87;;;9.50;;
14603;SDS011;7388;51.078;13.740;2022-10-16T16:48:31;12.40;;;9.17;;
14603;SDS011;7388;51.078;13.740;2022-10-16T16:51:01;19.37;;;12.60;;
14603;SDS011;7388;51.078;13.740;2022-10-16T16:53:28;17.20;;;12.90;;
14603;SDS011;7388;51.078;13.740;2022-10-16T16:55:54;16.63;;;11.50;;
14603;SDS011;7388;51.078;13.740;2022-10-16T16:58:20;15.33;;;13.23;;
14603;SDS011;7388;51.078;13.740;2022-10-16T17:00:46;15.80;;;13.47;;
14603;SDS011;7388;51.078;13.740;2022-10-16T17:03:12;12.10;;;10.10;;
14603;SDS011;7388;51.078;13.740;2022-10-16T17:05:37;13.40;;;10.00;;
14603;SDS011;7388;51.078;13.740;2022-10-16T17:08:06;12.40;;;8.90;;
14603;SDS011;7388;51.078;13.740;2022-10-16T17:10:32;16.47;;;11.90;;